DLH2HK LFLL-EDDF
Flight info
| Callsign | DLH2HK |
|---|---|
| Flight time | 0h 51m |
| Altitude | 30000 |
| Route | RISOR T45 VENAT/N0457F320 T45 SOSAL N871 KORED DCT BERSU N871 DITON/N0459F310 DCT LADOL/N0457F320 T163 EMPAX EMPAX5B |
| Aircraft | A320/M-SDE3FGHIRWY/LB1 |
Departure
| Time | 2026-05-05 09:53 |
|---|---|
| Airport | Lyon Saint-Exupéry Airport (LFLL) |
Arrival
| Time | 2026-05-05 10:44 |
|---|---|
| Airport | Frankfurt Main Airport (EDDF) |
| Time | Latitude | Longitude | Altitude | Speed | Heading |
|---|---|---|---|---|---|
| 2026-05-05 09:52 | 45.56490 | 5.37536 | 11162 ft | 369 kts | 110° |
| 2026-05-05 09:53 | 45.55689 | 5.41032 | 11891 ft | 373 kts | 110° |
| 2026-05-05 09:53 | 45.54881 | 5.44572 | 12637 ft | 377 kts | 111° |
| 2026-05-05 09:53 | 45.54062 | 5.48143 | 13364 ft | 381 kts | 111° |
| 2026-05-05 09:53 | 45.53229 | 5.51753 | 14028 ft | 385 kts | 111° |
| 2026-05-05 09:54 | 45.52383 | 5.55399 | 14656 ft | 389 kts | 111° |
| 2026-05-05 09:54 | 45.51549 | 5.59085 | 15245 ft | 393 kts | 108° |
| 2026-05-05 09:54 | 45.51060 | 5.62954 | 15833 ft | 401 kts | 98° |
| 2026-05-05 09:54 | 45.51080 | 5.66958 | 16410 ft | 408 kts | 86° |
| 2026-05-05 09:55 | 45.51461 | 5.70989 | 16957 ft | 412 kts | 85° |
| 2026-05-05 09:55 | 45.51852 | 5.75049 | 17503 ft | 415 kts | 85° |
| 2026-05-05 09:55 | 45.52233 | 5.79083 | 18032 ft | 418 kts | 85° |
| 2026-05-05 09:55 | 45.52616 | 5.83210 | 18507 ft | 421 kts | 85° |
| 2026-05-05 09:56 | 45.53030 | 5.87361 | 18940 ft | 426 kts | 81° |
| 2026-05-05 09:56 | 45.53883 | 5.91432 | 19375 ft | 432 kts | 70° |
| 2026-05-05 09:56 | 45.55287 | 5.95247 | 19826 ft | 438 kts | 58° |
| 2026-05-05 09:56 | 45.57208 | 5.98638 | 20274 ft | 442 kts | 46° |
| 2026-05-05 09:57 | 45.59573 | 6.01458 | 20744 ft | 445 kts | 34° |
| 2026-05-05 09:57 | 45.62203 | 6.03818 | 21192 ft | 448 kts | 32° |
| 2026-05-05 09:57 | 45.64857 | 6.06166 | 21683 ft | 450 kts | 32° |
| 2026-05-05 09:57 | 45.67560 | 6.08559 | 22155 ft | 452 kts | 32° |
| 2026-05-05 09:58 | 45.70237 | 6.10931 | 22615 ft | 454 kts | 32° |
| 2026-05-05 09:58 | 45.72929 | 6.13325 | 23054 ft | 456 kts | 32° |
| 2026-05-05 09:58 | 45.75632 | 6.15733 | 23488 ft | 459 kts | 32° |
| 2026-05-05 09:58 | 45.78345 | 6.18156 | 23837 ft | 461 kts | 33° |
| 2026-05-05 09:59 | 45.81071 | 6.20596 | 24169 ft | 463 kts | 32° |
| 2026-05-05 09:59 | 45.83816 | 6.23055 | 24476 ft | 467 kts | 32° |
| 2026-05-05 09:59 | 45.86582 | 6.25531 | 24821 ft | 470 kts | 33° |
| 2026-05-05 09:59 | 45.89364 | 6.28022 | 25159 ft | 473 kts | 32° |
| 2026-05-05 10:00 | 45.92164 | 6.30528 | 25479 ft | 475 kts | 33° |
| 2026-05-05 10:00 | 45.94974 | 6.33048 | 25774 ft | 477 kts | 33° |
| 2026-05-05 10:00 | 45.97795 | 6.35585 | 26053 ft | 479 kts | 32° |
| 2026-05-05 10:00 | 46.00626 | 6.38132 | 26362 ft | 481 kts | 33° |
| 2026-05-05 10:01 | 46.03470 | 6.40693 | 26660 ft | 483 kts | 33° |
| 2026-05-05 10:01 | 46.06324 | 6.43266 | 26993 ft | 485 kts | 33° |
| 2026-05-05 10:01 | 46.09190 | 6.45856 | 27304 ft | 488 kts | 33° |
| 2026-05-05 10:01 | 46.12070 | 6.48465 | 27611 ft | 490 kts | 33° |
| 2026-05-05 10:02 | 46.14965 | 6.51090 | 27910 ft | 492 kts | 33° |
| 2026-05-05 10:02 | 46.17858 | 6.53710 | 28317 ft | 491 kts | 33° |
| 2026-05-05 10:02 | 46.20748 | 6.56325 | 28692 ft | 490 kts | 34° |
| 2026-05-05 10:02 | 46.23630 | 6.58936 | 29112 ft | 489 kts | 34° |
| 2026-05-05 10:03 | 46.26507 | 6.61548 | 29540 ft | 488 kts | 34° |
| 2026-05-05 10:03 | 46.29375 | 6.64160 | 29852 ft | 488 kts | 34° |
| 2026-05-05 10:03 | 46.35118 | 6.69415 | 29900 ft | 489 kts | 34° |
| 2026-05-05 10:04 | 46.40859 | 6.74677 | 29906 ft | 488 kts | 34° |
| 2026-05-05 10:04 | 46.46586 | 6.79938 | 29903 ft | 487 kts | 34° |
| 2026-05-05 10:05 | 46.52308 | 6.85224 | 29911 ft | 487 kts | 35° |
| 2026-05-05 10:05 | 46.57464 | 6.91474 | 29886 ft | 481 kts | 51° |
| 2026-05-05 10:06 | 46.61682 | 6.98991 | 29895 ft | 480 kts | 54° |
| 2026-05-05 10:06 | 46.65871 | 7.06545 | 29897 ft | 480 kts | 54° |
| 2026-05-05 10:07 | 46.70059 | 7.14114 | 29897 ft | 480 kts | 54° |
| 2026-05-05 10:07 | 46.74240 | 7.21691 | 29897 ft | 480 kts | 54° |
| 2026-05-05 10:08 | 46.78409 | 7.29273 | 29895 ft | 479 kts | 55° |
| 2026-05-05 10:08 | 46.82566 | 7.36848 | 29865 ft | 477 kts | 55° |
| 2026-05-05 10:09 | 46.86705 | 7.44416 | 29884 ft | 476 kts | 55° |
| 2026-05-05 10:09 | 46.90825 | 7.51990 | 29901 ft | 475 kts | 55° |
| 2026-05-05 10:10 | 46.94932 | 7.59554 | 29893 ft | 474 kts | 56° |
| 2026-05-05 10:10 | 46.99028 | 7.67111 | 29890 ft | 473 kts | 56° |
| 2026-05-05 10:11 | 47.03107 | 7.74665 | 29893 ft | 473 kts | 56° |
| 2026-05-05 10:11 | 47.07180 | 7.82227 | 29893 ft | 472 kts | 56° |
| 2026-05-05 10:12 | 47.11239 | 7.89796 | 29898 ft | 472 kts | 56° |
| 2026-05-05 10:12 | 47.15040 | 7.97563 | 29889 ft | 468 kts | 63° |
| 2026-05-05 10:13 | 47.18464 | 8.05587 | 29877 ft | 468 kts | 63° |
| 2026-05-05 10:13 | 47.21938 | 8.13762 | 29884 ft | 468 kts | 63° |
| 2026-05-05 10:14 | 47.25387 | 8.21898 | 29882 ft | 469 kts | 63° |
| 2026-05-05 10:14 | 47.29085 | 8.29827 | 29879 ft | 475 kts | 52° |
| 2026-05-05 10:15 | 47.34235 | 8.36060 | 29886 ft | 487 kts | 33° |
| 2026-05-05 10:15 | 47.40343 | 8.40464 | 29879 ft | 489 kts | 28° |
| 2026-05-05 10:16 | 47.46478 | 8.44800 | 29895 ft | 489 kts | 28° |
| 2026-05-05 10:16 | 47.52607 | 8.49153 | 29918 ft | 488 kts | 28° |
| 2026-05-05 10:17 | 47.58717 | 8.53504 | 29926 ft | 486 kts | 28° |
| 2026-05-05 10:17 | 47.64802 | 8.57853 | 29916 ft | 485 kts | 28° |
| 2026-05-05 10:18 | 47.70882 | 8.62200 | 29902 ft | 485 kts | 28° |
| 2026-05-05 10:18 | 47.76966 | 8.66555 | 29867 ft | 485 kts | 28° |
| 2026-05-05 10:19 | 47.83053 | 8.70923 | 29869 ft | 486 kts | 28° |
| 2026-05-05 10:19 | 47.89130 | 8.75320 | 29859 ft | 486 kts | 28° |
| 2026-05-05 10:20 | 47.90155 | 8.76065 | 29852 ft | 486 kts | 28° |
| 2026-05-05 10:20 | 48.00827 | 8.83802 | 29850 ft | 488 kts | 27° |
| 2026-05-05 10:21 | 48.06946 | 8.88237 | 29843 ft | 489 kts | 27° |
| 2026-05-05 10:21 | 48.13073 | 8.92690 | 29855 ft | 490 kts | 26° |
| 2026-05-05 10:22 | 48.19591 | 8.95723 | 29847 ft | 493 kts | 8° |
| 2026-05-05 10:22 | 48.26410 | 8.96788 | 29844 ft | 493 kts | 5° |
| 2026-05-05 10:23 | 48.33248 | 8.97820 | 29839 ft | 494 kts | 5° |
| 2026-05-05 10:23 | 48.40088 | 8.98879 | 29836 ft | 495 kts | 5° |
| 2026-05-05 10:24 | 48.46893 | 8.99935 | 29841 ft | 495 kts | 5° |
| 2026-05-05 10:24 | 48.53746 | 9.00973 | 29841 ft | 495 kts | 5° |
| 2026-05-05 10:25 | 48.60605 | 9.02007 | 29843 ft | 495 kts | 5° |
| 2026-05-05 10:25 | 48.67451 | 9.03233 | 29843 ft | 495 kts | 8° |
| 2026-05-05 10:26 | 48.74251 | 9.04926 | 29833 ft | 495 kts | 9° |
| 2026-05-05 10:26 | 48.81032 | 9.06707 | 29869 ft | 493 kts | 8° |
| 2026-05-05 10:27 | 48.87774 | 9.08360 | 29856 ft | 481 kts | 8° |
| 2026-05-05 10:27 | 48.90996 | 9.09027 | 29738 ft | 454 kts | 5° |
| 2026-05-05 10:27 | 48.94067 | 9.09514 | 29064 ft | 440 kts | 4° |
| 2026-05-05 10:28 | 48.97153 | 9.09911 | 27144 ft | 456 kts | 3° |
| 2026-05-05 10:28 | 49.00389 | 9.10278 | 25250 ft | 472 kts | 3° |
| 2026-05-05 10:28 | 49.03701 | 9.10654 | 23348 ft | 480 kts | 4° |
| 2026-05-05 10:28 | 49.07038 | 9.11066 | 21529 ft | 481 kts | 4° |
| 2026-05-05 10:29 | 49.10345 | 9.11517 | 20049 ft | 474 kts | 5° |
| 2026-05-05 10:29 | 49.13616 | 9.11992 | 18848 ft | 472 kts | 5° |
| 2026-05-05 10:29 | 49.16863 | 9.12477 | 18242 ft | 465 kts | 5° |
| 2026-05-05 10:29 | 49.20068 | 9.12956 | 17495 ft | 461 kts | 5° |
| 2026-05-05 10:30 | 49.23233 | 9.13426 | 16859 ft | 454 kts | 5° |
| 2026-05-05 10:30 | 49.26357 | 9.13879 | 16240 ft | 447 kts | 5° |
| 2026-05-05 10:30 | 49.29417 | 9.14526 | 15642 ft | 441 kts | 12° |
| 2026-05-05 10:30 | 49.32358 | 9.15511 | 15244 ft | 430 kts | 8° |
| 2026-05-05 10:31 | 49.35317 | 9.15610 | 14663 ft | 424 kts | 355° |
| 2026-05-05 10:31 | 49.38248 | 9.15267 | 14040 ft | 421 kts | 354° |
| 2026-05-05 10:31 | 49.41157 | 9.14914 | 13366 ft | 418 kts | 354° |
| 2026-05-05 10:31 | 49.44052 | 9.14566 | 12580 ft | 416 kts | 354° |
| 2026-05-05 10:32 | 49.46931 | 9.14204 | 11812 ft | 414 kts | 354° |
| 2026-05-05 10:32 | 49.49792 | 9.13826 | 11061 ft | 411 kts | 354° |
| 2026-05-05 10:32 | 49.52626 | 9.13434 | 10329 ft | 408 kts | 354° |
| 2026-05-05 10:32 | 49.55416 | 9.13031 | 9978 ft | 395 kts | 354° |
| 2026-05-05 10:33 | 49.58090 | 9.12638 | 9833 ft | 377 kts | 354° |
| 2026-05-05 10:33 | 49.60620 | 9.12261 | 9864 ft | 355 kts | 354° |
| 2026-05-05 10:33 | 49.63013 | 9.11905 | 9861 ft | 336 kts | 354° |
| 2026-05-05 10:33 | 49.65280 | 9.11571 | 9861 ft | 319 kts | 354° |
| 2026-05-05 10:34 | 49.67441 | 9.11256 | 9865 ft | 304 kts | 354° |
| 2026-05-05 10:34 | 49.69527 | 9.10951 | 9863 ft | 300 kts | 354° |
| 2026-05-05 10:34 | 49.71574 | 9.10651 | 9869 ft | 299 kts | 354° |
| 2026-05-05 10:34 | 49.73657 | 9.10197 | 9770 ft | 300 kts | 347° |
| 2026-05-05 10:35 | 49.75668 | 9.09416 | 9239 ft | 303 kts | 344° |
| 2026-05-05 10:35 | 49.77715 | 9.08563 | 8717 ft | 306 kts | 344° |
| 2026-05-05 10:35 | 49.79778 | 9.07696 | 8197 ft | 308 kts | 344° |
| 2026-05-05 10:35 | 49.81851 | 9.06819 | 7705 ft | 310 kts | 344° |
| 2026-05-05 10:36 | 49.83926 | 9.05940 | 7307 ft | 306 kts | 344° |
| 2026-05-05 10:36 | 49.85925 | 9.05098 | 7010 ft | 290 kts | 344° |
| 2026-05-05 10:36 | 49.87864 | 9.04291 | 6739 ft | 287 kts | 344° |
| 2026-05-05 10:36 | 49.89785 | 9.03497 | 6477 ft | 285 kts | 344° |
| 2026-05-05 10:37 | 49.91695 | 9.02709 | 6213 ft | 283 kts | 344° |
| 2026-05-05 10:37 | 49.93594 | 9.01926 | 5929 ft | 282 kts | 344° |
| 2026-05-05 10:37 | 49.95485 | 9.01143 | 5651 ft | 281 kts | 344° |
| 2026-05-05 10:37 | 49.97365 | 9.00360 | 5370 ft | 279 kts | 344° |
| 2026-05-05 10:38 | 49.99235 | 8.99577 | 5080 ft | 277 kts | 344° |
| 2026-05-05 10:38 | 50.01088 | 8.98796 | 4818 ft | 275 kts | 344° |
| 2026-05-05 10:38 | 50.02934 | 8.98019 | 4540 ft | 274 kts | 344° |
| 2026-05-05 10:38 | 50.04766 | 8.97242 | 4254 ft | 272 kts | 344° |
| 2026-05-05 10:39 | 50.06588 | 8.96466 | 4043 ft | 271 kts | 344° |
| 2026-05-05 10:39 | 50.08395 | 8.95672 | 4000 ft | 269 kts | 340° |
| 2026-05-05 10:39 | 50.09963 | 8.94169 | 4004 ft | 261 kts | 313° |
| 2026-05-05 10:39 | 50.10881 | 8.91920 | 3997 ft | 241 kts | 288° |
| 2026-05-05 10:40 | 50.11113 | 8.89457 | 4005 ft | 224 kts | 264° |
| 2026-05-05 10:40 | 50.10757 | 8.87193 | 3997 ft | 209 kts | 248° |
| 2026-05-05 10:40 | 50.10262 | 8.85102 | 3848 ft | 204 kts | 249° |
| 2026-05-05 10:40 | 50.09776 | 8.83034 | 3612 ft | 204 kts | 249° |
| 2026-05-05 10:41 | 50.09286 | 8.80956 | 3367 ft | 205 kts | 249° |
| 2026-05-05 10:41 | 50.08791 | 8.78857 | 3081 ft | 208 kts | 249° |
| 2026-05-05 10:41 | 50.08291 | 8.76739 | 2797 ft | 210 kts | 249° |
| 2026-05-05 10:41 | 50.07786 | 8.74602 | 2522 ft | 211 kts | 249° |
| 2026-05-05 10:42 | 50.06963 | 8.71004 | 1913 ft | 216 kts | 255° |
| 2026-05-05 10:42 | 50.06750 | 8.68726 | 1704 ft | 205 kts | 264° |
| 2026-05-05 10:42 | 50.06401 | 8.66682 | 1583 ft | 187 kts | 249° |
| 2026-05-05 10:43 | 50.05963 | 8.64883 | 1403 ft | 167 kts | 249° |
| 2026-05-05 10:43 | 50.05595 | 8.63260 | 1108 ft | 155 kts | 250° |
| 2026-05-05 10:43 | 50.05233 | 8.61733 | 851 ft | 147 kts | 249° |
| 2026-05-05 10:43 | 50.04878 | 8.60261 | 662 ft | 144 kts | 250° |
| 2026-05-05 10:44 | 50.04538 | 8.58808 | 464 ft | 143 kts | 248° |
| 2026-05-05 10:44 | 50.04217 | 8.57429 | 369 ft | 129 kts | 247° |
| 2026-05-05 10:44 | 50.03959 | 8.56377 | 357 ft | 63 kts | 250° |
| 2026-05-05 10:44 | 50.03886 | 8.56001 | 351 ft | 32 kts | 264° |
| 2026-05-05 10:45 | 50.03899 | 8.55738 | 352 ft | 10 kts | 279° |
| 2026-05-05 10:45 | 50.03903 | 8.55705 | 348 ft | 4 kts | 279° |
| 2026-05-05 10:45 | 50.03910 | 8.55671 | 357 ft | 3 kts | 298° |
| 2026-05-05 10:45 | 50.03922 | 8.55651 | 353 ft | 1 kts | 319° |
| 2026-05-05 10:46 | 50.03926 | 8.55647 | 354 ft | 3 kts | 324° |
| 2026-05-05 10:46 | 50.03970 | 8.55653 | 353 ft | 6 kts | 36° |
| 2026-05-05 10:46 | 50.03992 | 8.55717 | 351 ft | 12 kts | 68° |
| 2026-05-05 10:46 | 50.04026 | 8.55857 | 358 ft | 14 kts | 69° |
| 2026-05-05 10:47 | 50.04060 | 8.56001 | 352 ft | 15 kts | 70° |
| 2026-05-05 10:47 | 50.04095 | 8.56147 | 355 ft | 14 kts | 69° |
| 2026-05-05 10:47 | 50.04132 | 8.56269 | 357 ft | 10 kts | 42° |
| 2026-05-05 10:47 | 50.04213 | 8.56256 | 356 ft | 13 kts | 340° |
| 2026-05-05 10:48 | 50.04287 | 8.56184 | 356 ft | 12 kts | 292° |
| 2026-05-05 10:48 | 50.04330 | 8.56064 | 356 ft | 15 kts | 335° |
| 2026-05-05 10:48 | 50.04352 | 8.56050 | 359 ft | 0 kts | 337° |
| 2026-05-05 10:49 | 50.04374 | 8.56036 | 356 ft | 7 kts | 341° |
| 2026-05-05 10:49 | 50.04431 | 8.56053 | 362 ft | 13 kts | 44° |
| 2026-05-05 10:50 | 50.04466 | 8.56175 | 360 ft | 12 kts | 69° |
| 2026-05-05 10:50 | 50.04491 | 8.56280 | 359 ft | 7 kts | 71° |
| 2026-05-05 10:50 | 50.04467 | 8.56314 | 359 ft | 5 kts | 159° |
| 2026-05-05 10:50 | 50.04438 | 8.56326 | 359 ft | 3 kts | 166° |
| 2026-05-05 10:51 | 50.04431 | 8.56329 | 357 ft | 0 kts | 166° |